Time;durP1;ratioP1;P1;durP2;ratioP2;P2;SDS_P1;SDS_P2;PMS_P1;PMS_P2;Temp;Humidity;BMP_temperature;BMP_pressure;BME280_temperature;BME280_humidity;BME280_pressure;Samples;Min_cycle;Max_cycle;Signal;HPM_P1;HPM_P2
2023/12/17 00:01:45;;;;;;;19.73;12.43;;;;;;;0.47;100.00;100467.25;5078912;28;20231;-79
2023/12/17 00:04:11;;;;;;;21.70;12.50;;;;;;;0.46;100.00;100465.50;5079475;28;20203;-78
2023/12/17 00:06:42;;;;;;;18.87;12.07;;;;;;;0.45;100.00;100468.09;5077476;28;20206;-78
2023/12/17 00:09:08;;;;;;;20.90;12.03;;;;;;;0.40;100.00;100470.66;5073730;28;20234;-78
2023/12/17 00:11:40;;;;;;;18.93;11.67;;;;;;;0.37;100.00;100465.41;5073117;28;20227;-78
2023/12/17 00:14:07;;;;;;;19.67;11.50;;;;;;;0.37;100.00;100470.63;5073124;28;20253;-80
2023/12/17 00:16:33;;;;;;;16.97;11.77;;;;;;;0.35;100.00;100482.75;5073155;28;20232;-78
2023/12/17 00:19:01;;;;;;;22.70;12.93;;;;;;;0.36;100.00;100487.09;5073220;28;20212;-78
2023/12/17 00:21:27;;;;;;;16.83;10.87;;;;;;;0.28;100.00;100487.88;5072862;28;20234;-77
2023/12/17 00:23:54;;;;;;;15.90;10.50;;;;;;;0.25;100.00;100490.47;5073561;28;20253;-79
2023/12/17 00:26:20;;;;;;;18.67;11.80;;;;;;;0.20;100.00;100486.94;5074216;28;20670;-79
2023/12/17 00:28:47;;;;;;;17.23;10.83;;;;;;;0.14;100.00;100487.75;5073811;28;20203;-78
2023/12/17 00:31:16;;;;;;;17.77;11.47;;;;;;;0.15;100.00;100484.31;5073776;28;20235;-78
2023/12/17 00:33:42;;;;;;;19.07;11.40;;;;;;;0.14;100.00;100485.13;5073355;28;20211;-78
2023/12/17 00:36:11;;;;;;;18.97;11.33;;;;;;;0.12;100.00;100480.78;5072932;28;20211;-80
2023/12/17 00:38:37;;;;;;;16.40;10.27;;;;;;;0.05;100.00;100489.38;5073891;28;20674;-78
2023/12/17 00:41:04;;;;;;;16.83;10.87;;;;;;;0.01;100.00;100496.28;5073692;28;20231;-78
2023/12/17 00:43:31;;;;;;;15.50;9.80;;;;;;;0.01;100.00;100498.03;5071990;28;20211;-78
2023/12/17 00:45:57;;;;;;;16.67;11.17;;;;;;;0.03;100.00;100492.00;5072813;28;20230;-79
2023/12/17 00:48:23;;;;;;;17.80;10.63;;;;;;;0.00;100.00;100488.50;5075578;28;20207;-79
2023/12/17 00:50:50;;;;;;;16.57;10.10;;;;;;;0.02;100.00;100486.75;5073147;28;20255;-80
2023/12/17 00:53:18;;;;;;;15.87;10.10;;;;;;;0.02;100.00;100490.22;5072171;28;20203;-79
2023/12/17 00:55:44;;;;;;;15.10;9.87;;;;;;;-0.02;100.00;100480.66;5071332;28;20211;-79
2023/12/17 00:58:11;;;;;;;15.87;10.23;;;;;;;0.02;100.00;100476.38;5072122;28;20253;-79
2023/12/17 01:00:37;;;;;;;14.87;8.93;;;;;;;0.08;100.00;100474.69;5072333;28;20218;-78
2023/12/17 01:03:04;;;;;;;14.47;9.87;;;;;;;0.09;100.00;100466.03;5071784;28;20239;-77
2023/12/17 01:05:33;;;;;;;21.73;12.23;;;;;;;0.15;100.00;100473.91;5071202;28;20214;-77
2023/12/17 01:07:59;;;;;;;21.90;12.23;;;;;;;0.20;100.00;100482.59;5071895;28;20217;-78
2023/12/17 01:10:27;;;;;;;17.00;10.57;;;;;;;0.24;100.00;100486.09;5071983;28;20590;-77
2023/12/17 01:12:54;;;;;;;22.13;11.53;;;;;;;0.25;100.00;100493.91;5071449;28;20309;-77
2023/12/17 01:15:20;;;;;;;18.80;10.53;;;;;;;0.20;100.00;100495.59;5071783;28;20666;-77
2023/12/17 01:17:46;;;;;;;17.53;9.90;;;;;;;0.18;100.00;100483.44;5073466;28;20231;-77
2023/12/17 01:20:13;;;;;;;17.63;10.90;;;;;;;0.11;100.00;100492.03;5078634;28;20217;-77
2023/12/17 01:22:40;;;;;;;19.27;10.97;;;;;;;0.07;100.00;100498.94;5078529;28;20238;-77
2023/12/17 01:25:07;;;;;;;21.20;10.60;;;;;;;0.05;100.00;100502.38;5077845;28;20203;-77
2023/12/17 01:27:35;;;;;;;16.97;10.60;;;;;;;0.08;100.00;100505.88;5078075;28;20263;-77
2023/12/17 01:30:02;;;;;;;18.70;9.83;;;;;;;0.04;100.00;100501.53;5078423;28;20214;-77
2023/12/17 01:32:28;;;;;;;18.67;10.03;;;;;;;0.00;100.00;100504.09;5078481;28;20231;-77
2023/12/17 01:34:55;;;;;;;14.07;10.03;;;;;;;-0.04;100.00;100508.34;5077716;28;20616;-77
2023/12/17 01:37:21;;;;;;;17.20;9.83;;;;;;;-0.12;100.00;100509.16;5078320;28;20250;-77
2023/12/17 01:39:48;;;;;;;20.23;10.43;;;;;;;-0.19;100.00;100509.91;5078294;28;20246;-77
2023/12/17 01:42:14;;;;;;;18.60;10.93;;;;;;;-0.22;100.00;100506.41;5078258;28;20250;-77
2023/12/17 01:44:42;;;;;;;19.93;11.50;;;;;;;-0.22;100.00;100496.03;5077653;28;20207;-79
2023/12/17 01:47:09;;;;;;;17.93;10.17;;;;;;;-0.19;100.00;100502.13;5078281;28;20199;-77
2023/12/17 01:49:35;;;;;;;16.73;10.13;;;;;;;-0.11;100.00;100496.16;5078452;28;20289;-77
2023/12/17 01:52:02;;;;;;;18.83;10.83;;;;;;;-0.10;100.00;100500.50;5078457;28;20227;-78
2023/12/17 01:54:29;;;;;;;15.20;10.07;;;;;;;-0.06;100.00;100498.81;5078042;28;20306;-78
2023/12/17 01:56:55;;;;;;;16.27;9.80;;;;;;;-0.05;100.00;100506.63;5077972;28;20227;-77
2023/12/17 01:59:23;;;;;;;13.67;9.03;;;;;;;-0.06;100.00;100511.81;5077604;28;20215;-77
2023/12/17 02:01:53;;;;;;;14.33;8.97;;;;;;;-0.11;100.00;100501.34;5077763;28;20229;-77
2023/12/17 02:04:21;;;;;;;16.97;8.77;;;;;;;-0.12;100.00;100496.16;5077821;28;20215;-77
2023/12/17 02:06:47;;;;;;;19.90;10.17;;;;;;;-0.11;100.00;100500.50;5077631;28;20203;-78
2023/12/17 02:09:14;;;;;;;15.60;9.60;;;;;;;-0.12;100.00;100499.63;5078309;28;20200;-78
2023/12/17 02:11:40;;;;;;;15.50;9.83;;;;;;;-0.14;100.00;100502.19;5077830;28;20329;-77
2023/12/17 02:14:07;;;;;;;14.90;9.90;;;;;;;-0.13;100.00;100496.13;5077908;28;20208;-77
2023/12/17 02:16:33;;;;;;;17.77;10.30;;;;;;;-0.11;100.00;100501.34;5077249;28;20213;-77
2023/12/17 02:19:01;;;;;;;14.73;9.57;;;;;;;-0.10;100.00;100502.25;5078001;28;20587;-77
2023/12/17 02:21:28;;;;;;;15.27;10.03;;;;;;;-0.11;100.00;100500.50;5077710;28;20725;-78
2023/12/17 02:23:56;;;;;;;16.70;10.70;;;;;;;-0.10;100.00;100490.09;5077514;28;20686;-77
2023/12/17 02:26:22;;;;;;;16.00;10.23;;;;;;;-0.04;100.00;100491.91;5077691;28;20207;-77
2023/12/17 02:28:49;;;;;;;21.60;12.13;;;;;;;-0.01;100.00;100492.81;5076761;28;20213;-78
2023/12/17 02:31:15;;;;;;;17.47;10.47;;;;;;;0.07;100.00;100505.88;5074070;28;20234;-77
2023/12/17 02:33:42;;;;;;;17.23;10.93;;;;;;;0.11;100.00;100503.31;5074212;28;20221;-78
2023/12/17 02:36:09;;;;;;;20.67;11.33;;;;;;;0.13;100.00;100505.94;5074441;28;20233;-77
2023/12/17 02:38:35;;;;;;;20.33;12.20;;;;;;;0.17;100.00;100512.91;5074191;28;20237;-77
2023/12/17 02:41:03;;;;;;;23.50;13.07;;;;;;;0.20;100.00;100508.59;5074297;28;20696;-77
2023/12/17 02:43:30;;;;;;;17.90;11.53;;;;;;;0.20;100.00;100487.78;5074128;28;20692;-77
2023/12/17 02:45:56;;;;;;;22.47;11.40;;;;;;;0.20;100.00;100486.94;5073694;28;20203;-79
2023/12/17 02:48:22;;;;;;;20.40;11.47;;;;;;;0.18;100.00;100479.13;5074267;28;20207;-77
2023/12/17 02:50:49;;;;;;;16.43;10.93;;;;;;;0.27;100.00;100474.00;5074297;28;20704;-78
2023/12/17 02:53:15;;;;;;;21.47;12.93;;;;;;;0.33;100.00;100483.59;5074435;28;20207;-79
2023/12/17 02:55:42;;;;;;;20.07;12.33;;;;;;;0.34;100.00;100477.53;5073915;28;20211;-77
2023/12/17 02:58:10;;;;;;;20.63;11.80;;;;;;;0.29;100.00;100487.91;5073949;28;20752;-77
2023/12/17 03:00:36;;;;;;;19.17;11.80;;;;;;;0.39;100.00;100486.25;5073934;28;20207;-77
2023/12/17 03:03:03;;;;;;;23.77;12.07;;;;;;;0.36;100.00;100489.69;5073533;28;20300;-77
2023/12/17 03:05:29;;;;;;;19.07;11.40;;;;;;;0.27;100.00;100481.81;5073346;28;20211;-77
2023/12/17 03:07:56;;;;;;;18.67;10.57;;;;;;;0.19;100.00;100477.41;5074332;28;20207;-76
2023/12/17 03:10:22;;;;;;;16.60;11.03;;;;;;;0.18;100.00;100473.91;5074253;28;20218;-77
2023/12/17 03:12:49;;;;;;;16.63;10.73;;;;;;;0.13;100.00;100454.78;5073649;28;20228;-77
2023/12/17 03:15:17;;;;;;;19.77;10.57;;;;;;;0.17;100.00;100463.50;5072935;28;20207;-77
2023/12/17 03:17:43;;;;;;;14.27;9.97;;;;;;;0.20;100.00;100463.53;5073647;28;20227;-77
2023/12/17 03:20:10;;;;;;;19.90;10.80;;;;;;;0.15;100.00;100466.09;5073708;28;20210;-77
2023/12/17 03:22:37;;;;;;;17.00;10.43;;;;;;;0.12;100.00;100466.06;5073881;28;20235;-78
2023/12/17 03:25:03;;;;;;;17.03;9.93;;;;;;;0.09;100.00;100459.97;5072936;28;20207;-77
2023/12/17 03:27:30;;;;;;;17.23;10.10;;;;;;;0.09;100.00;100450.44;5073454;28;20318;-78
2023/12/17 03:29:56;;;;;;;17.77;11.00;;;;;;;0.07;100.00;100444.34;5073487;28;20207;-78
2023/12/17 03:32:24;;;;;;;15.70;9.40;;;;;;;0.07;100.00;100436.53;5073099;28;20232;-77
2023/12/17 03:34:51;;;;;;;17.33;10.57;;;;;;;0.12;100.00;100436.56;5072625;28;20207;-78
2023/12/17 03:37:17;;;;;;;16.43;10.87;;;;;;;0.17;100.00;100430.56;5073201;28;20322;-77
2023/12/17 03:39:44;;;;;;;16.13;10.10;;;;;;;0.16;100.00;100433.16;5073491;28;20211;-77
2023/12/17 03:42:10;;;;;;;15.33;10.00;;;;;;;0.09;100.00;100424.44;5073849;28;20231;-79
2023/12/17 03:44:37;;;;;;;17.43;10.00;;;;;;;0.05;100.00;100424.38;5072709;28;20213;-78
2023/12/17 03:47:04;;;;;;;15.13;10.07;;;;;;;0.03;100.00;100431.31;5072995;28;20215;-77
2023/12/17 03:49:31;;;;;;;15.27;9.87;;;;;;;0.00;100.00;100424.34;5073210;28;20222;-77
2023/12/17 03:51:58;;;;;;;14.50;8.90;;;;;;;-0.02;100.00;100425.19;5073052;28;20551;-78
2023/12/17 03:54:24;;;;;;;17.03;10.30;;;;;;;0.01;100.00;100409.63;5072937;28;20230;-78
2023/12/17 03:56:51;;;;;;;14.37;9.93;;;;;;;0.03;100.00;100426.13;5073060;28;20207;-78
2023/12/17 03:59:17;;;;;;;14.83;9.27;;;;;;;0.02;100.00;100425.22;5077734;28;20231;-78
2023/12/17 04:01:45;;;;;;;17.57;9.90;;;;;;;0.02;100.00;100427.81;5076720;28;20235;-78
2023/12/17 04:04:12;;;;;;;16.27;10.10;;;;;;;0.02;100.00;100425.22;5077917;28;20211;-78
2023/12/17 04:06:42;;;;;;;16.83;11.20;;;;;;;-0.01;100.00;100425.22;5077180;28;20207;-78
2023/12/17 04:09:08;;;;;;;13.27;9.87;;;;;;;0.03;100.00;100421.81;5077666;28;20682;-78
2023/12/17 04:11:35;;;;;;;16.40;10.77;;;;;;;-0.01;100.00;100422.63;5077607;28;20230;-78
2023/12/17 04:14:01;;;;;;;15.50;10.00;;;;;;;0.02;100.00;100425.22;5077884;28;20203;-78
2023/12/17 04:16:28;;;;;;;13.23;8.80;;;;;;;0.01;100.00;100420.03;5075946;28;20682;-78
2023/12/17 04:18:54;;;;;;;17.33;10.23;;;;;;;0.00;100.00;100423.50;5076662;28;20713;-78
2023/12/17 04:21:21;;;;;;;14.63;9.67;;;;;;;-0.04;100.00;100419.97;5077101;28;20224;-78
2023/12/17 04:23:49;;;;;;;17.73;10.23;;;;;;;-0.04;100.00;100421.72;5076678;28;20207;-78
2023/12/17 04:26:15;;;;;;;14.70;9.73;;;;;;;-0.02;100.00;100422.59;5075566;28;20219;-78
2023/12/17 04:28:42;;;;;;;14.83;9.83;;;;;;;0.00;100.00;100421.75;5076745;28;20208;-78
2023/12/17 04:31:08;;;;;;;15.77;10.27;;;;;;;0.03;100.00;100421.81;5074585;28;20722;-78
2023/12/17 04:33:34;;;;;;;16.57;10.20;;;;;;;0.05;100.00;100419.19;5076517;28;20204;-78
2023/12/17 04:36:01;;;;;;;16.60;9.97;;;;;;;0.06;100.00;100415.72;5075803;28;20214;-78
2023/12/17 04:38:27;;;;;;;17.40;9.27;;;;;;;0.03;100.00;100416.59;5075945;28;20239;-78
2023/12/17 04:40:55;;;;;;;16.80;10.47;;;;;;;0.04;100.00;100420.94;5075671;28;20214;-78
2023/12/17 04:43:23;;;;;;;15.10;9.80;;;;;;;0.05;100.00;100414.00;5076552;28;20203;-78
2023/12/17 04:45:49;;;;;;;15.60;9.57;;;;;;;0.03;100.00;100414.00;5076138;28;20265;-78
2023/12/17 04:48:16;;;;;;;14.70;8.53;;;;;;;0.03;100.00;100411.41;5076595;28;20213;-78
2023/12/17 04:50:43;;;;;;;17.33;10.70;;;;;;;0.04;100.00;100418.34;5076153;28;20218;-78
2023/12/17 04:53:09;;;;;;;15.80;10.33;;;;;;;0.03;100.00;100410.50;5074920;28;20554;-79
2023/12/17 04:55:36;;;;;;;14.43;9.60;;;;;;;0.03;100.00;100407.91;5071729;28;20246;-77
2023/12/17 04:58:03;;;;;;;13.87;9.37;;;;;;;0.01;100.00;100413.09;5071325;28;20713;-77
2023/12/17 05:00:30;;;;;;;16.20;10.30;;;;;;;0.10;100.00;100408.00;5071823;28;20230;-78
2023/12/17 05:02:56;;;;;;;15.13;10.40;;;;;;;0.10;100.00;100408.00;5071392;28;20259;-77
2023/12/17 05:05:23;;;;;;;14.80;9.67;;;;;;;0.10;100.00;100418.38;5071249;28;20215;-77
2023/12/17 05:07:49;;;;;;;16.13;9.77;;;;;;;0.03;100.00;100424.41;5072167;28;20207;-78
2023/12/17 05:10:16;;;;;;;14.47;9.30;;;;;;;-0.01;100.00;100414.81;5071677;28;20666;-77
2023/12/17 05:12:43;;;;;;;14.07;9.90;;;;;;;-0.08;100.00;100402.63;5072007;28;20722;-79
2023/12/17 05:15:11;;;;;;;14.33;9.47;;;;;;;-0.10;100.00;100404.31;5071424;28;20251;-79
2023/12/17 05:17:37;;;;;;;14.73;9.33;;;;;;;-0.14;100.00;100393.03;5072196;28;20219;-77
2023/12/17 05:20:05;;;;;;;13.93;9.07;;;;;;;-0.17;100.00;100397.34;5072091;28;20214;-78
2023/12/17 05:22:31;;;;;;;12.73;9.00;;;;;;;-0.16;100.00;100393.88;5071740;28;20235;-77
2023/12/17 05:24:58;;;;;;;17.00;10.10;;;;;;;-0.08;100.00;100395.69;5070921;28;20222;-77
2023/12/17 05:27:24;;;;;;;16.80;10.40;;;;;;;-0.10;100.00;100393.06;5071623;28;20325;-78
2023/12/17 05:29:51;;;;;;;14.53;9.67;;;;;;;-0.20;100.00;100395.59;5071716;28;20207;-77
2023/12/17 05:32:19;;;;;;;16.33;9.40;;;;;;;-0.23;100.00;100379.94;5071381;28;20223;-78
2023/12/17 05:34:46;;;;;;;12.63;9.37;;;;;;;-0.28;100.00;100383.38;5070816;28;20697;-77
2023/12/17 05:37:12;;;;;;;13.63;9.30;;;;;;;-0.29;100.00;100379.88;5071701;28;20618;-77
2023/12/17 05:39:39;;;;;;;16.33;9.50;;;;;;;-0.32;100.00;100382.47;5071326;28;20238;-77
2023/12/17 05:42:05;;;;;;;14.23;9.07;;;;;;;-0.31;100.00;100381.63;5071486;28;20230;-78
2023/12/17 05:44:32;;;;;;;17.10;9.03;;;;;;;-0.34;100.00;100382.44;5072242;28;20208;-78
2023/12/17 05:46:58;;;;;;;15.87;8.43;;;;;;;-0.33;100.00;100385.94;5075957;28;20214;-77
2023/12/17 05:49:26;;;;;;;12.93;8.97;;;;;;;-0.34;100.00;100381.56;5075320;28;20207;-77
2023/12/17 05:51:53;;;;;;;13.83;8.80;;;;;;;-0.40;100.00;100385.00;5074723;28;20231;-77
2023/12/17 05:54:19;;;;;;;16.57;9.27;;;;;;;-0.45;100.00;100383.22;5071354;28;20207;-77
2023/12/17 05:56:46;;;;;;;14.20;8.93;;;;;;;-0.51;100.00;100393.53;5071051;28;20203;-77
2023/12/17 05:59:12;;;;;;;12.57;8.37;;;;;;;-0.53;100.00;100396.13;5073097;28;20227;-78
2023/12/17 06:01:39;;;;;;;12.33;7.60;;;;;;;-0.61;100.00;100405.53;5073197;28;20227;-78
2023/12/17 06:04:05;;;;;;;9.87;6.57;;;;;;;-0.65;100.00;100405.47;5075502;28;20586;-78
2023/12/17 06:06:33;;;;;;;10.13;6.90;;;;;;;-0.74;100.00;100408.00;5078315;28;20238;-78
2023/12/17 06:08:59;;;;;;;11.57;7.70;;;;;;;-0.82;100.00;100414.78;5078894;28;20213;-78
2023/12/17 06:11:26;;;;;;;10.83;7.00;;;;;;;-0.86;100.00;100420.81;5078785;28;20231;-78
2023/12/17 06:13:52;;;;;;;11.03;7.60;;;;;;;-0.92;100.00;100410.38;5078480;28;20672;-78
2023/12/17 06:16:19;;;;;;;11.40;7.10;;;;;;;-0.92;100.00;100415.56;5077915;28;20221;-78
2023/12/17 06:18:45;;;;;;;12.47;6.67;;;;;;;-0.96;100.00;100414.66;5077656;28;20237;-77
2023/12/17 06:21:22;;;;;;;12.10;7.57;;;;;;;-0.97;100.00;100407.72;5074581;28;20231;-77
2023/12/17 06:23:50;;;;;;;12.87;7.23;;;;;;;-0.95;100.00;100410.31;5074949;28;20245;-78
2023/12/17 06:26:18;;;;;;;12.70;7.13;;;;;;;-0.98;100.00;100412.88;5073786;28;20646;-77
2023/12/17 06:28:44;;;;;;;11.60;7.60;;;;;;;-0.94;100.00;100412.94;5074601;28;20234;-78
2023/12/17 06:31:11;;;;;;;13.87;7.83;;;;;;;-0.92;100.00;100410.38;5074461;28;20249;-77
2023/12/17 06:33:37;;;;;;;12.07;8.10;;;;;;;-0.88;100.00;100414.72;5073033;28;20214;-77
2023/12/17 06:36:04;;;;;;;12.87;8.43;;;;;;;-0.84;100.00;100409.63;5072516;28;20293;-78
2023/12/17 06:38:31;;;;;;;13.00;8.20;;;;;;;-0.80;100.00;100423.50;5074276;28;20228;-77
2023/12/17 06:40:59;;;;;;;12.13;7.67;;;;;;;-0.80;100.00;100418.31;5074270;28;20207;-77
2023/12/17 06:43:26;;;;;;;13.13;7.70;;;;;;;-0.81;100.00;100424.34;5073915;28;20681;-77
2023/12/17 06:45:52;;;;;;;14.27;7.77;;;;;;;-0.82;100.00;100417.41;5074127;28;20214;-77
2023/12/17 06:48:19;;;;;;;12.13;7.73;;;;;;;-0.82;100.00;100415.69;5074670;28;20214;-77
2023/12/17 06:50:45;;;;;;;13.03;8.33;;;;;;;-0.83;100.00;100415.66;5074135;28;20210;-77
2023/12/17 06:53:16;;;;;;;14.17;7.80;;;;;;;-0.82;100.00;100417.41;5074593;28;20695;-77
2023/12/17 06:55:43;;;;;;;12.43;8.23;;;;;;;-0.81;100.00;100416.56;5074337;28;20586;-78
2023/12/17 06:58:12;;;;;;;10.20;7.53;;;;;;;-0.84;100.00;100419.09;5074469;28;20211;-78
2023/12/17 07:00:39;;;;;;;13.43;8.37;;;;;;;-0.83;100.00;100428.63;5074098;28;20204;-78
2023/12/17 07:03:05;;;;;;;10.27;7.43;;;;;;;-0.82;100.00;100425.19;5074121;28;20238;-78
2023/12/17 07:05:32;;;;;;;12.87;8.07;;;;;;;-0.80;100.00;100420.91;5073866;28;20215;-77
2023/12/17 07:07:59;;;;;;;13.37;8.23;;;;;;;-0.80;100.00;100431.28;5074774;28;20298;-78
2023/12/17 07:10:26;;;;;;;12.23;8.87;;;;;;;-0.81;100.00;100426.97;5074077;28;20301;-77
2023/12/17 07:12:52;;;;;;;16.57;8.60;;;;;;;-0.81;100.00;100424.34;5076021;28;20234;-78
2023/12/17 07:15:20;;;;;;;16.53;9.33;;;;;;;-0.79;100.00;100422.63;5077434;28;20222;-78
2023/12/17 07:17:47;;;;;;;14.03;8.43;;;;;;;-0.77;100.00;100415.72;5072277;28;20234;-79
2023/12/17 07:20:13;;;;;;;13.53;8.37;;;;;;;-0.71;100.00;100408.00;5074133;28;20245;-80
2023/12/17 07:22:40;;;;;;;14.70;9.43;;;;;;;-0.67;100.00;100407.22;5073862;28;20227;-77
2023/12/17 07:25:08;;;;;;;12.70;8.40;;;;;;;-0.64;100.00;100399.44;5072346;28;20214;-76
2023/12/17 07:27:34;;;;;;;14.33;8.67;;;;;;;-0.56;100.00;100409.06;5073158;28;20211;-77
2023/12/17 07:30:01;;;;;;;13.43;9.43;;;;;;;-0.53;100.00;100401.31;5073115;28;20206;-77
2023/12/17 07:32:29;;;;;;;13.57;8.63;;;;;;;-0.51;100.00;100403.94;5074654;28;20236;-78
2023/12/17 07:34:55;;;;;;;14.13;9.53;;;;;;;-0.48;100.00;100409.16;5074721;28;20203;-78
2023/12/17 07:37:22;;;;;;;15.50;9.80;;;;;;;-0.44;100.00;100405.72;5073884;28;20211;-78
2023/12/17 07:39:48;;;;;;;14.53;9.23;;;;;;;-0.41;100.00;100400.56;5074775;28;20231;-78
2023/12/17 07:42:14;;;;;;;11.60;8.13;;;;;;;-0.37;100.00;100399.75;5074105;28;20279;-79
2023/12/17 07:44:41;;;;;;;13.13;8.63;;;;;;;-0.35;100.00;100395.41;5075444;28;20207;-78
2023/12/17 07:47:10;;;;;;;14.50;9.83;;;;;;;-0.28;100.00;100401.56;5077274;28;20218;-78
2023/12/17 07:49:38;;;;;;;14.73;9.10;;;;;;;-0.23;100.00;100403.34;5077543;28;20284;-78
2023/12/17 07:52:05;;;;;;;15.53;10.10;;;;;;;-0.21;100.00;100405.09;5077966;28;20227;-78
2023/12/17 07:54:32;;;;;;;13.07;8.83;;;;;;;-0.16;100.00;100399.06;5076029;28;20203;-78
2023/12/17 07:56:59;;;;;;;13.50;8.80;;;;;;;-0.13;100.00;100399.13;5075783;28;20573;-79
2023/12/17 07:59:26;;;;;;;15.00;9.93;;;;;;;-0.08;100.00;100387.91;5077362;28;20231;-78
2023/12/17 08:01:52;;;;;;;14.97;9.20;;;;;;;-0.04;100.00;100383.59;5077714;28;20645;-79
2023/12/17 08:04:19;;;;;;;13.83;8.77;;;;;;;0.04;100.00;100381.94;5075937;28;20203;-77
2023/12/17 08:06:47;;;;;;;14.20;8.80;;;;;;;0.08;100.00;100390.63;5075669;28;20208;-77
2023/12/17 08:09:15;;;;;;;15.30;9.33;;;;;;;0.10;100.00;100397.59;5074519;28;20227;-77
2023/12/17 08:11:43;;;;;;;14.50;9.40;;;;;;;0.11;100.00;100388.91;5072807;28;20250;-77
2023/12/17 08:14:10;;;;;;;15.40;9.90;;;;;;;0.10;100.00;100392.38;5074938;28;20790;-77
2023/12/17 08:16:36;;;;;;;14.57;9.97;;;;;;;0.16;100.00;100405.44;5077350;28;20210;-78
2023/12/17 08:19:03;;;;;;;15.10;9.77;;;;;;;0.25;100.00;100402.03;5077930;28;20227;-79
2023/12/17 08:21:29;;;;;;;15.93;10.30;;;;;;;0.33;100.00;100402.97;5077710;28;20591;-78
2023/12/17 08:23:57;;;;;;;13.97;10.07;;;;;;;0.37;100.00;100402.13;5076027;28;20210;-79
2023/12/17 08:26:24;;;;;;;14.80;10.07;;;;;;;0.44;100.00;100404.75;5073837;28;20211;-78
2023/12/17 08:28:50;;;;;;;15.00;10.13;;;;;;;0.47;100.00;100402.19;5073915;28;20210;-78
2023/12/17 08:31:17;;;;;;;16.13;10.30;;;;;;;0.48;100.00;100403.06;5074724;28;20246;-78
2023/12/17 08:33:44;;;;;;;12.97;9.27;;;;;;;0.49;100.00;100403.06;5072722;28;20229;-78
2023/12/17 08:36:11;;;;;;;16.17;10.53;;;;;;;0.54;100.00;100401.38;5071857;28;20234;-78
2023/12/17 08:38:38;;;;;;;15.60;10.37;;;;;;;0.63;100.00;100404.00;5070087;28;20204;-78
2023/12/17 08:41:06;;;;;;;13.83;9.17;;;;;;;0.64;100.00;100400.59;5070679;28;20230;-79
2023/12/17 08:43:32;;;;;;;15.50;10.47;;;;;;;0.63;100.00;100393.59;5073015;28;20286;-78
2023/12/17 08:46:01;;;;;;;14.47;9.63;;;;;;;0.76;100.00;100403.25;5073558;28;20216;-78
2023/12/17 08:48:28;;;;;;;13.90;10.73;;;;;;;0.78;100.00;100391.09;5073444;28;20242;-78
2023/12/17 08:50:54;;;;;;;17.93;10.73;;;;;;;0.84;100.00;100391.13;5073356;28;20203;-78
2023/12/17 08:53:23;;;;;;;16.73;10.33;;;;;;;0.84;100.00;100378.13;5072707;28;20286;-78
2023/12/17 08:55:49;;;;;;;20.88;15.27;;;;;;;0.95;100.00;100372.97;5071586;28;20473;-78
2023/12/17 08:58:17;;;;;;;16.37;11.20;;;;;;;0.94;100.00;100382.53;5072977;28;20232;-78
2023/12/17 09:00:43;;;;;;;17.07;11.00;;;;;;;1.07;100.00;100373.91;5071605;28;20230;-79
2023/12/17 09:03:10;;;;;;;16.10;10.47;;;;;;;1.16;100.00;100383.47;5072475;28;20235;-79
2023/12/17 09:05:36;;;;;;;15.80;10.27;;;;;;;1.16;100.00;100383.47;5071642;28;20688;-79
2023/12/17 09:08:03;;;;;;;15.67;10.37;;;;;;;1.21;100.00;100381.72;5072541;28;20584;-80
2023/12/17 09:10:29;;;;;;;15.47;10.00;;;;;;;1.28;100.00;100383.53;5072682;28;20566;-79
2023/12/17 09:12:56;;;;;;;15.43;9.60;;;;;;;1.31;100.00;100389.63;5072211;28;20234;-80
2023/12/17 09:15:25;;;;;;;14.47;10.13;;;;;;;1.35;100.00;100385.28;5071559;28;20581;-79
2023/12/17 09:17:52;;;;;;;16.90;9.90;;;;;;;1.39;100.00;100393.09;5072529;28;20204;-80
2023/12/17 09:20:19;;;;;;;14.37;9.60;;;;;;;1.48;100.00;100390.50;5071525;28;20431;-79
2023/12/17 09:22:45;;;;;;;16.67;10.33;;;;;;;1.47;100.00;100396.59;5071926;28;20251;-79
2023/12/17 09:25:12;;;;;;;14.67;9.70;;;;;;;1.64;100.00;100389.69;5072040;28;20207;-80
2023/12/17 09:27:39;;;;;;;16.75;12.38;;;;;;;1.71;100.00;100386.22;5064125;28;20535;-79
2023/12/17 09:30:08;;;;;;;14.17;9.50;;;;;;;1.72;100.00;100382.75;5066019;28;20211;-79
2023/12/17 09:32:36;;;;;;;13.10;9.40;;;;;;;1.78;100.00;100393.19;5071148;28;20227;-78
2023/12/17 09:35:02;;;;;;;13.63;8.83;;;;;;;1.84;100.00;100384.50;5070768;28;20200;-80
2023/12/17 09:37:29;;;;;;;13.00;9.13;;;;;;;1.89;100.00;100381.03;5072800;28;20241;-80
2023/12/17 09:39:56;;;;;;;13.17;8.60;;;;;;;1.99;100.00;100388.00;5075625;28;20722;-81
2023/12/17 09:42:22;;;;;;;13.97;9.20;;;;;;;2.09;100.00;100384.50;5073733;28;20227;-80
2023/12/17 09:44:49;;;;;;;13.67;8.47;;;;;;;2.15;100.00;100388.88;5074396;28;20215;-80
2023/12/17 09:47:16;;;;;;;14.10;9.40;;;;;;;2.16;100.00;100396.72;5076114;28;20206;-80
2023/12/17 09:49:44;;;;;;;12.17;8.90;;;;;;;2.28;100.00;100391.44;5071021;28;20617;-80
2023/12/17 09:52:13;;;;;;;13.80;9.80;;;;;;;2.28;100.00;100390.59;5057346;28;20224;-79
2023/12/17 09:54:39;;;;;;;11.93;8.90;;;;;;;2.33;100.00;100389.72;5056020;28;20212;-80
2023/12/17 09:57:07;;;;;;;15.47;9.77;;;;;;;2.50;100.00;100382.75;5056019;28;20690;-77
2023/12/17 09:59:34;;;;;;;14.57;10.17;;;;;;;2.51;100.00;100376.66;5055686;28;20311;-79
2023/12/17 10:02:00;;;;;;;13.27;9.27;;;;;;;2.48;100.00;100384.50;5055665;28;20260;-81
2023/12/17 10:04:27;;;;;;;13.43;9.60;;;;;;;2.57;100.00;100378.41;5056102;28;20215;-80
2023/12/17 10:06:55;;;;;;;14.83;9.53;;;;;;;2.59;100.00;100382.75;5055407;28;20208;-80
2023/12/17 10:09:21;;;;;;;14.33;9.70;;;;;;;2.67;100.00;100380.97;5055903;28;20310;-80
2023/12/17 10:11:48;;;;;;;13.83;9.67;;;;;;;2.62;100.00;100372.28;5056163;28;20228;-80
2023/12/17 10:14:22;;;;;;;14.73;9.90;;;;;;;2.67;100.00;100375.75;5055853;28;20208;-79
2023/12/17 10:16:49;;;;;;;14.47;10.37;;;;;;;2.79;100.00;100365.28;5054753;28;20211;-78
2023/12/17 10:19:15;;;;;;;14.13;10.23;;;;;;;2.90;100.00;100363.50;5054738;28;20235;-79
2023/12/17 10:21:42;;;;;;;14.40;10.00;;;;;;;2.88;100.00;100356.56;5055003;28;20228;-79
2023/12/17 10:24:10;;;;;;;16.80;10.27;;;;;;;2.99;100.00;100358.22;5055153;28;20303;-79
2023/12/17 10:26:42;;;;;;;12.00;9.07;;;;;;;3.03;100.00;100353.88;5054849;28;20208;-79
2023/12/17 10:29:12;;;;;;;12.23;8.93;;;;;;;3.04;100.00;100340.81;5055223;28;20212;-79
2023/12/17 10:31:41;;;;;;;12.83;9.33;;;;;;;3.01;100.00;100346.03;5054790;28;20228;-78
2023/12/17 10:34:15;;;;;;;11.57;8.80;;;;;;;3.04;100.00;100346.03;5054849;28;20208;-79
2023/12/17 10:36:42;;;;;;;12.63;8.87;;;;;;;3.04;100.00;100342.53;5054882;28;20216;-79
2023/12/17 10:39:12;;;;;;;13.27;9.17;;;;;;;3.02;100.00;100332.13;5054812;28;20207;-79
2023/12/17 10:41:40;;;;;;;13.20;9.03;;;;;;;3.07;100.00;100332.94;5056690;28;20254;-79
2023/12/17 10:44:10;;;;;;;20.33;13.60;;;;;;;3.07;100.00;100332.94;5052088;28;20223;-79
2023/12/17 10:46:37;;;;;;;12.93;10.03;;;;;;;3.10;100.00;100325.09;5054422;28;20302;-79
2023/12/17 10:49:07;;;;;;;12.30;9.23;;;;;;;3.19;100.00;100332.03;5055499;28;20210;-80
2023/12/17 10:51:34;;;;;;;12.60;9.07;;;;;;;3.21;100.00;100323.31;5055963;28;20243;-79
2023/12/17 10:54:01;;;;;;;12.53;9.20;;;;;;;3.19;100.00;100309.38;5056845;28;20243;-80
2023/12/17 10:56:34;;;;;;;12.63;8.97;;;;;;;3.24;100.00;100310.22;5056768;28;20586;-80
2023/12/17 10:59:03;;;;;;;10.77;7.70;;;;;;;3.23;100.00;100305.88;5057358;28;20208;-80
2023/12/17 11:01:30;;;;;;;12.13;9.15;;;;;;;3.25;100.00;100304.09;5053455;28;20942;-79
2023/12/17 11:03:57;;;;;;;10.37;7.93;;;;;;;3.27;100.00;100302.38;5060616;28;20218;-79
2023/12/17 11:06:23;;;;;;;13.13;8.83;;;;;;;3.30;100.00;100304.94;5074286;28;20204;-79
2023/12/17 11:08:50;;;;;;;11.07;8.17;;;;;;;3.35;100.00;100299.69;5067817;28;20227;-79
2023/12/17 11:11:19;;;;;;;11.13;8.93;;;;;;;3.36;100.00;100293.59;5074705;28;20236;-79